sensor_id;sensor_type;location;lat;lon;timestamp;temperature;humidity
19242;DHT22;9755;47.790;9.620;2023-01-25T00:02:13;2.00;1.00
19242;DHT22;9755;47.790;9.620;2023-01-25T00:04:40;2.00;1.00
19242;DHT22;9755;47.790;9.620;2023-01-25T00:07:07;2.00;1.00
19242;DHT22;9755;47.790;9.620;2023-01-25T00:09:34;2.00;1.00
19242;DHT22;9755;47.790;9.620;2023-01-25T00:12:02;2.00;99.90
19242;DHT22;9755;47.790;9.620;2023-01-25T00:14:29;1.90;99.90
19242;DHT22;9755;47.790;9.620;2023-01-25T00:16:56;2.00;99.90
19242;DHT22;9755;47.790;9.620;2023-01-25T00:19:24;2.00;1.00
19242;DHT22;9755;47.790;9.620;2023-01-25T00:21:51;2.00;1.00
19242;DHT22;9755;47.790;9.620;2023-01-25T00:24:18;2.00;1.00
19242;DHT22;9755;47.790;9.620;2023-01-25T00:26:47;2.00;1.00
19242;DHT22;9755;47.790;9.620;2023-01-25T00:29:16;1.90;1.00
19242;DHT22;9755;47.790;9.620;2023-01-25T00:31:53;1.90;99.90
19242;DHT22;9755;47.790;9.620;2023-01-25T00:34:44;1.90;1.00
19242;DHT22;9755;47.790;9.620;2023-01-25T00:37:17;1.90;99.90
19242;DHT22;9755;47.790;9.620;2023-01-25T00:39:45;1.90;99.90
19242;DHT22;9755;47.790;9.620;2023-01-25T00:42:13;1.90;99.90
19242;DHT22;9755;47.790;9.620;2023-01-25T00:44:41;1.90;99.90
19242;DHT22;9755;47.790;9.620;2023-01-25T00:47:09;1.90;38.00
19242;DHT22;9755;47.790;9.620;2023-01-25T00:49:37;1.90;1.00
19242;DHT22;9755;47.790;9.620;2023-01-25T00:52:04;1.90;27.50
19242;DHT22;9755;47.790;9.620;2023-01-25T00:54:31;1.90;99.90
19242;DHT22;9755;47.790;9.620;2023-01-25T00:56:59;1.90;1.00
19242;DHT22;9755;47.790;9.620;2023-01-25T00:59:26;1.90;99.20
19242;DHT22;9755;47.790;9.620;2023-01-25T01:01:54;1.90;99.90
19242;DHT22;9755;47.790;9.620;2023-01-25T01:04:22;1.90;1.00
19242;DHT22;9755;47.790;9.620;2023-01-25T01:06:51;1.80;1.00
19242;DHT22;9755;47.790;9.620;2023-01-25T01:09:19;1.80;1.00
19242;DHT22;9755;47.790;9.620;2023-01-25T01:11:47;1.80;1.00
19242;DHT22;9755;47.790;9.620;2023-01-25T01:14:14;1.80;1.00
19242;DHT22;9755;47.790;9.620;2023-01-25T01:16:41;1.80;1.00
19242;DHT22;9755;47.790;9.620;2023-01-25T01:19:10;1.80;1.00
19242;DHT22;9755;47.790;9.620;2023-01-25T01:21:37;1.80;1.00
19242;DHT22;9755;47.790;9.620;2023-01-25T01:24:04;1.70;1.00
19242;DHT22;9755;47.790;9.620;2023-01-25T01:26:32;1.70;1.00
19242;DHT22;9755;47.790;9.620;2023-01-25T01:28:59;1.70;1.00
19242;DHT22;9755;47.790;9.620;2023-01-25T01:31:26;1.70;1.00
19242;DHT22;9755;47.790;9.620;2023-01-25T01:33:56;1.70;1.00
19242;DHT22;9755;47.790;9.620;2023-01-25T01:36:27;1.80;1.00
19242;DHT22;9755;47.790;9.620;2023-01-25T01:38:56;1.70;1.00
19242;DHT22;9755;47.790;9.620;2023-01-25T01:41:29;1.80;1.00
19242;DHT22;9755;47.790;9.620;2023-01-25T01:43:56;1.80;1.00
19242;DHT22;9755;47.790;9.620;2023-01-25T01:46:27;1.80;1.00
19242;DHT22;9755;47.790;9.620;2023-01-25T01:48:58;1.80;99.90
19242;DHT22;9755;47.790;9.620;2023-01-25T01:51:37;1.80;99.90
19242;DHT22;9755;47.790;9.620;2023-01-25T01:54:09;1.80;99.90
19242;DHT22;9755;47.790;9.620;2023-01-25T01:56:49;1.80;99.90
19242;DHT22;9755;47.790;9.620;2023-01-25T01:59:18;1.80;63.10
19242;DHT22;9755;47.790;9.620;2023-01-25T02:01:47;1.80;1.00
19242;DHT22;9755;47.790;9.620;2023-01-25T02:04:14;1.80;1.00
19242;DHT22;9755;47.790;9.620;2023-01-25T02:06:47;1.90;1.00
19242;DHT22;9755;47.790;9.620;2023-01-25T02:09:20;1.80;99.90
19242;DHT22;9755;47.790;9.620;2023-01-25T02:11:47;1.80;99.90
19242;DHT22;9755;47.790;9.620;2023-01-25T02:14:16;1.80;1.00
19242;DHT22;9755;47.790;9.620;2023-01-25T02:16:44;1.80;1.00
19242;DHT22;9755;47.790;9.620;2023-01-25T02:19:16;1.90;99.90
19242;DHT22;9755;47.790;9.620;2023-01-25T02:21:46;1.90;1.00
19242;DHT22;9755;47.790;9.620;2023-01-25T02:24:18;1.90;99.90
19242;DHT22;9755;47.790;9.620;2023-01-25T02:26:48;1.80;99.90
19242;DHT22;9755;47.790;9.620;2023-01-25T02:29:15;1.80;99.90
19242;DHT22;9755;47.790;9.620;2023-01-25T02:31:44;1.90;26.30
19242;DHT22;9755;47.790;9.620;2023-01-25T02:34:14;1.90;1.00
19242;DHT22;9755;47.790;9.620;2023-01-25T02:36:41;1.90;1.00
19242;DHT22;9755;47.790;9.620;2023-01-25T02:39:11;1.90;84.40
19242;DHT22;9755;47.790;9.620;2023-01-25T02:41:42;1.90;46.90
19242;DHT22;9755;47.790;9.620;2023-01-25T02:44:12;1.90;99.90
19242;DHT22;9755;47.790;9.620;2023-01-25T02:46:41;1.90;1.00
19242;DHT22;9755;47.790;9.620;2023-01-25T02:49:10;1.80;1.00
19242;DHT22;9755;47.790;9.620;2023-01-25T02:51:39;1.80;1.00
19242;DHT22;9755;47.790;9.620;2023-01-25T02:54:08;1.80;1.00
19242;DHT22;9755;47.790;9.620;2023-01-25T02:56:36;1.80;1.00
19242;DHT22;9755;47.790;9.620;2023-01-25T02:59:05;1.80;1.00
19242;DHT22;9755;47.790;9.620;2023-01-25T03:01:35;1.80;1.00
19242;DHT22;9755;47.790;9.620;2023-01-25T03:04:02;1.90;1.00
19242;DHT22;9755;47.790;9.620;2023-01-25T03:06:33;1.80;98.20
19242;DHT22;9755;47.790;9.620;2023-01-25T03:09:01;1.80;1.00
19242;DHT22;9755;47.790;9.620;2023-01-25T03:11:28;1.80;1.00
19242;DHT22;9755;47.790;9.620;2023-01-25T03:13:55;1.80;99.90
19242;DHT22;9755;47.790;9.620;2023-01-25T03:16:22;1.80;1.00
19242;DHT22;9755;47.790;9.620;2023-01-25T03:18:52;1.80;1.00
19242;DHT22;9755;47.790;9.620;2023-01-25T03:21:19;1.90;99.90
19242;DHT22;9755;47.790;9.620;2023-01-25T03:23:52;1.80;1.00
19242;DHT22;9755;47.790;9.620;2023-01-25T03:26:20;1.80;99.90
19242;DHT22;9755;47.790;9.620;2023-01-25T03:28:48;1.80;3.00
19242;DHT22;9755;47.790;9.620;2023-01-25T03:31:16;1.80;1.00
19242;DHT22;9755;47.790;9.620;2023-01-25T03:33:43;1.80;1.00
19242;DHT22;9755;47.790;9.620;2023-01-25T03:36:11;1.80;1.00
19242;DHT22;9755;47.790;9.620;2023-01-25T03:38:39;1.80;99.90
19242;DHT22;9755;47.790;9.620;2023-01-25T03:41:07;1.80;99.90
19242;DHT22;9755;47.790;9.620;2023-01-25T03:43:34;1.80;1.00
19242;DHT22;9755;47.790;9.620;2023-01-25T03:46:01;1.80;1.00
19242;DHT22;9755;47.790;9.620;2023-01-25T03:48:28;1.80;99.90
19242;DHT22;9755;47.790;9.620;2023-01-25T03:50:57;1.80;99.90
19242;DHT22;9755;47.790;9.620;2023-01-25T03:53:27;1.80;99.90
19242;DHT22;9755;47.790;9.620;2023-01-25T03:55:56;1.80;99.90
19242;DHT22;9755;47.790;9.620;2023-01-25T03:58:24;1.70;99.90
19242;DHT22;9755;47.790;9.620;2023-01-25T04:00:54;1.70;99.90
19242;DHT22;9755;47.790;9.620;2023-01-25T04:03:21;1.70;99.90
19242;DHT22;9755;47.790;9.620;2023-01-25T04:05:49;1.70;99.90
19242;DHT22;9755;47.790;9.620;2023-01-25T04:08:16;1.70;99.90
19242;DHT22;9755;47.790;9.620;2023-01-25T04:10:49;1.70;99.90
19242;DHT22;9755;47.790;9.620;2023-01-25T04:13:17;1.70;99.90
19242;DHT22;9755;47.790;9.620;2023-01-25T04:15:44;1.70;99.90
19242;DHT22;9755;47.790;9.620;2023-01-25T04:18:11;1.70;1.00
19242;DHT22;9755;47.790;9.620;2023-01-25T04:20:39;1.70;99.90
19242;DHT22;9755;47.790;9.620;2023-01-25T04:23:06;1.70;99.90
19242;DHT22;9755;47.790;9.620;2023-01-25T04:25:40;1.70;99.90
19242;DHT22;9755;47.790;9.620;2023-01-25T04:28:09;1.70;1.00
19242;DHT22;9755;47.790;9.620;2023-01-25T04:30:36;1.70;1.00
19242;DHT22;9755;47.790;9.620;2023-01-25T04:33:03;1.60;99.90
19242;DHT22;9755;47.790;9.620;2023-01-25T04:35:31;1.70;99.90
19242;DHT22;9755;47.790;9.620;2023-01-25T04:37:59;1.70;1.00
19242;DHT22;9755;47.790;9.620;2023-01-25T04:40:26;1.70;1.00
19242;DHT22;9755;47.790;9.620;2023-01-25T04:42:53;1.70;99.90
19242;DHT22;9755;47.790;9.620;2023-01-25T04:45:22;1.70;99.90
19242;DHT22;9755;47.790;9.620;2023-01-25T04:47:49;1.70;99.90
19242;DHT22;9755;47.790;9.620;2023-01-25T04:50:21;1.70;1.00
19242;DHT22;9755;47.790;9.620;2023-01-25T04:52:48;1.70;1.00
19242;DHT22;9755;47.790;9.620;2023-01-25T04:55:15;1.70;1.00
19242;DHT22;9755;47.790;9.620;2023-01-25T04:57:48;1.70;1.00
19242;DHT22;9755;47.790;9.620;2023-01-25T05:00:16;1.70;1.00
19242;DHT22;9755;47.790;9.620;2023-01-25T05:02:44;1.70;1.00
19242;DHT22;9755;47.790;9.620;2023-01-25T05:05:12;1.70;1.00
19242;DHT22;9755;47.790;9.620;2023-01-25T05:07:39;1.70;1.00
19242;DHT22;9755;47.790;9.620;2023-01-25T05:10:07;1.70;1.00
19242;DHT22;9755;47.790;9.620;2023-01-25T05:12:34;1.70;1.00
19242;DHT22;9755;47.790;9.620;2023-01-25T05:15:02;1.70;1.00
19242;DHT22;9755;47.790;9.620;2023-01-25T05:17:29;1.70;1.00
19242;DHT22;9755;47.790;9.620;2023-01-25T05:19:57;1.80;1.00
19242;DHT22;9755;47.790;9.620;2023-01-25T05:22:25;1.70;32.70
19242;DHT22;9755;47.790;9.620;2023-01-25T05:24:52;1.70;99.90
19242;DHT22;9755;47.790;9.620;2023-01-25T05:27:19;1.70;99.90
19242;DHT22;9755;47.790;9.620;2023-01-25T05:29:46;1.70;1.00
19242;DHT22;9755;47.790;9.620;2023-01-25T05:32:15;1.60;1.00
19242;DHT22;9755;47.790;9.620;2023-01-25T05:34:42;1.60;1.00
19242;DHT22;9755;47.790;9.620;2023-01-25T05:37:13;1.60;14.50
19242;DHT22;9755;47.790;9.620;2023-01-25T05:39:40;1.60;99.90
19242;DHT22;9755;47.790;9.620;2023-01-25T05:42:10;1.60;99.90
19242;DHT22;9755;47.790;9.620;2023-01-25T05:44:37;1.60;99.90
19242;DHT22;9755;47.790;9.620;2023-01-25T05:47:05;1.60;99.90
19242;DHT22;9755;47.790;9.620;2023-01-25T05:49:32;1.60;99.90
19242;DHT22;9755;47.790;9.620;2023-01-25T05:51:59;1.60;99.90
19242;DHT22;9755;47.790;9.620;2023-01-25T05:54:28;1.60;1.00
19242;DHT22;9755;47.790;9.620;2023-01-25T05:56:55;1.60;1.00
19242;DHT22;9755;47.790;9.620;2023-01-25T05:59:22;1.60;99.90
19242;DHT22;9755;47.790;9.620;2023-01-25T06:01:49;1.60;99.90
19242;DHT22;9755;47.790;9.620;2023-01-25T06:04:16;1.60;99.90
19242;DHT22;9755;47.790;9.620;2023-01-25T06:06:43;1.60;1.00
19242;DHT22;9755;47.790;9.620;2023-01-25T06:09:10;1.60;99.90
19242;DHT22;9755;47.790;9.620;2023-01-25T06:11:41;1.60;99.90
19242;DHT22;9755;47.790;9.620;2023-01-25T06:14:08;1.60;1.00
19242;DHT22;9755;47.790;9.620;2023-01-25T06:16:35;1.60;1.00
19242;DHT22;9755;47.790;9.620;2023-01-25T06:19:03;1.60;1.00
19242;DHT22;9755;47.790;9.620;2023-01-25T06:21:31;1.50;99.90
19242;DHT22;9755;47.790;9.620;2023-01-25T06:23:59;1.50;99.90
19242;DHT22;9755;47.790;9.620;2023-01-25T06:26:26;1.50;99.90
19242;DHT22;9755;47.790;9.620;2023-01-25T06:28:55;1.50;99.90
19242;DHT22;9755;47.790;9.620;2023-01-25T06:31:22;1.50;99.90
19242;DHT22;9755;47.790;9.620;2023-01-25T06:33:50;1.50;99.90
19242;DHT22;9755;47.790;9.620;2023-01-25T06:36:18;1.50;99.90
19242;DHT22;9755;47.790;9.620;2023-01-25T06:38:47;1.50;99.90
19242;DHT22;9755;47.790;9.620;2023-01-25T06:41:15;1.50;99.90
19242;DHT22;9755;47.790;9.620;2023-01-25T06:43:42;1.50;1.00
19242;DHT22;9755;47.790;9.620;2023-01-25T06:46:11;1.50;1.00
19242;DHT22;9755;47.790;9.620;2023-01-25T06:48:38;1.50;1.00
19242;DHT22;9755;47.790;9.620;2023-01-25T06:51:10;1.50;1.00
19242;DHT22;9755;47.790;9.620;2023-01-25T06:53:46;1.40;1.00
19242;DHT22;9755;47.790;9.620;2023-01-25T06:56:15;1.50;99.90
19242;DHT22;9755;47.790;9.620;2023-01-25T06:58:43;1.40;1.00
19242;DHT22;9755;47.790;9.620;2023-01-25T07:01:14;1.40;1.00
19242;DHT22;9755;47.790;9.620;2023-01-25T07:03:41;1.40;1.00
19242;DHT22;9755;47.790;9.620;2023-01-25T07:06:10;1.40;1.00
19242;DHT22;9755;47.790;9.620;2023-01-25T07:08:37;1.40;1.00
19242;DHT22;9755;47.790;9.620;2023-01-25T07:11:07;1.40;99.90
19242;DHT22;9755;47.790;9.620;2023-01-25T07:13:37;1.40;1.00
19242;DHT22;9755;47.790;9.620;2023-01-25T07:16:06;1.40;1.00
19242;DHT22;9755;47.790;9.620;2023-01-25T07:18:34;1.40;1.00
19242;DHT22;9755;47.790;9.620;2023-01-25T07:21:03;1.40;1.00
19242;DHT22;9755;47.790;9.620;2023-01-25T07:23:36;1.40;1.00
19242;DHT22;9755;47.790;9.620;2023-01-25T07:26:04;1.30;1.00
19242;DHT22;9755;47.790;9.620;2023-01-25T07:28:32;1.30;1.00
19242;DHT22;9755;47.790;9.620;2023-01-25T07:31:03;1.40;1.00
19242;DHT22;9755;47.790;9.620;2023-01-25T07:33:31;1.40;1.00
19242;DHT22;9755;47.790;9.620;2023-01-25T07:36:00;1.40;99.90
19242;DHT22;9755;47.790;9.620;2023-01-25T07:38:27;1.40;99.90
19242;DHT22;9755;47.790;9.620;2023-01-25T07:40:55;1.40;99.90
19242;DHT22;9755;47.790;9.620;2023-01-25T07:43:22;1.50;99.90
19242;DHT22;9755;47.790;9.620;2023-01-25T07:45:49;1.50;1.00
19242;DHT22;9755;47.790;9.620;2023-01-25T07:48:17;1.40;1.00
19242;DHT22;9755;47.790;9.620;2023-01-25T07:50:45;1.40;1.00
19242;DHT22;9755;47.790;9.620;2023-01-25T07:53:15;1.40;99.90
19242;DHT22;9755;47.790;9.620;2023-01-25T07:55:42;1.40;18.00
19242;DHT22;9755;47.790;9.620;2023-01-25T07:58:10;1.50;1.00
19242;DHT22;9755;47.790;9.620;2023-01-25T08:00:37;1.40;1.00
19242;DHT22;9755;47.790;9.620;2023-01-25T08:03:04;1.40;1.00
19242;DHT22;9755;47.790;9.620;2023-01-25T08:05:32;1.40;1.00
19242;DHT22;9755;47.790;9.620;2023-01-25T08:07:59;1.40;1.00
19242;DHT22;9755;47.790;9.620;2023-01-25T08:10:28;1.40;1.00
19242;DHT22;9755;47.790;9.620;2023-01-25T08:12:55;1.40;1.00
19242;DHT22;9755;47.790;9.620;2023-01-25T08:15:22;1.40;1.00
19242;DHT22;9755;47.790;9.620;2023-01-25T08:17:49;1.40;1.00
19242;DHT22;9755;47.790;9.620;2023-01-25T08:20:16;1.40;1.00
19242;DHT22;9755;47.790;9.620;2023-01-25T08:22:43;1.40;1.00
19242;DHT22;9755;47.790;9.620;2023-01-25T08:25:10;1.40;1.00
19242;DHT22;9755;47.790;9.620;2023-01-25T08:27:39;1.50;1.00
19242;DHT22;9755;47.790;9.620;2023-01-25T08:30:07;1.40;99.90
19242;DHT22;9755;47.790;9.620;2023-01-25T08:32:36;1.40;1.00
19242;DHT22;9755;47.790;9.620;2023-01-25T08:35:04;1.40;1.00
19242;DHT22;9755;47.790;9.620;2023-01-25T08:37:31;1.40;1.00
19242;DHT22;9755;47.790;9.620;2023-01-25T08:39:58;1.40;1.00
19242;DHT22;9755;47.790;9.620;2023-01-25T08:42:25;1.50;99.90
19242;DHT22;9755;47.790;9.620;2023-01-25T08:44:57;1.40;99.90
19242;DHT22;9755;47.790;9.620;2023-01-25T08:47:24;1.40;1.00
19242;DHT22;9755;47.790;9.620;2023-01-25T08:49:51;1.50;99.90
19242;DHT22;9755;47.790;9.620;2023-01-25T08:52:19;1.50;68.80
19242;DHT22;9755;47.790;9.620;2023-01-25T08:54:47;1.60;1.00
19242;DHT22;9755;47.790;9.620;2023-01-25T08:57:14;1.60;1.00
19242;DHT22;9755;47.790;9.620;2023-01-25T08:59:41;1.60;1.00
19242;DHT22;9755;47.790;9.620;2023-01-25T09:02:11;1.60;99.90
19242;DHT22;9755;47.790;9.620;2023-01-25T09:04:39;1.60;1.00
19242;DHT22;9755;47.790;9.620;2023-01-25T09:07:06;1.60;99.90
19242;DHT22;9755;47.790;9.620;2023-01-25T09:09:33;1.60;99.90
19242;DHT22;9755;47.790;9.620;2023-01-25T09:12:00;1.70;99.90
19242;DHT22;9755;47.790;9.620;2023-01-25T09:14:29;1.70;99.90
19242;DHT22;9755;47.790;9.620;2023-01-25T09:16:56;1.60;99.90
19242;DHT22;9755;47.790;9.620;2023-01-25T09:19:25;1.60;99.90
19242;DHT22;9755;47.790;9.620;2023-01-25T09:21:52;1.70;99.90
19242;DHT22;9755;47.790;9.620;2023-01-25T09:24:19;1.70;99.90
19242;DHT22;9755;47.790;9.620;2023-01-25T09:26:46;1.70;99.90
19242;DHT22;9755;47.790;9.620;2023-01-25T09:29:13;1.70;83.70
19242;DHT22;9755;47.790;9.620;2023-01-25T09:31:43;1.80;1.00
19242;DHT22;9755;47.790;9.620;2023-01-25T09:34:11;1.90;1.00
19242;DHT22;9755;47.790;9.620;2023-01-25T09:36:40;1.90;1.00
19242;DHT22;9755;47.790;9.620;2023-01-25T09:39:09;1.80;1.00
19242;DHT22;9755;47.790;9.620;2023-01-25T09:45:02;1.80;1.00
19242;DHT22;9755;47.790;9.620;2023-01-25T09:47:38;1.80;99.90
19242;DHT22;9755;47.790;9.620;2023-01-25T09:53:23;1.80;1.00
19242;DHT22;9755;47.790;9.620;2023-01-25T09:55:53;1.90;1.00
19242;DHT22;9755;47.790;9.620;2023-01-25T09:58:28;1.90;1.00
19242;DHT22;9755;47.790;9.620;2023-01-25T10:01:10;1.90;99.90
19242;DHT22;9755;47.790;9.620;2023-01-25T10:03:44;1.90;99.90
19242;DHT22;9755;47.790;9.620;2023-01-25T10:06:14;1.90;99.90
19242;DHT22;9755;47.790;9.620;2023-01-25T10:08:48;2.00;99.90
19242;DHT22;9755;47.790;9.620;2023-01-25T10:11:22;1.90;99.90
19242;DHT22;9755;47.790;9.620;2023-01-25T10:13:50;1.80;98.70
19242;DHT22;9755;47.790;9.620;2023-01-25T10:16:22;1.80;99.90
19242;DHT22;9755;47.790;9.620;2023-01-25T10:18:58;1.90;1.00
19242;DHT22;9755;47.790;9.620;2023-01-25T10:21:33;1.90;99.90
19242;DHT22;9755;47.790;9.620;2023-01-25T10:27:02;1.80;1.00
19242;DHT22;9755;47.790;9.620;2023-01-25T10:29:36;1.80;1.00
19242;DHT22;9755;47.790;9.620;2023-01-25T10:32:13;1.80;1.00
19242;DHT22;9755;47.790;9.620;2023-01-25T10:34:46;1.90;1.00
19242;DHT22;9755;47.790;9.620;2023-01-25T10:37:15;1.90;99.90
19242;DHT22;9755;47.790;9.620;2023-01-25T10:39:51;1.90;99.90
19242;DHT22;9755;47.790;9.620;2023-01-25T10:42:24;1.80;99.90
19242;DHT22;9755;47.790;9.620;2023-01-25T10:44:52;1.80;1.00
19242;DHT22;9755;47.790;9.620;2023-01-25T10:47:23;1.80;99.90
19242;DHT22;9755;47.790;9.620;2023-01-25T10:49:51;1.80;99.90
19242;DHT22;9755;47.790;9.620;2023-01-25T10:52:21;2.00;1.00
19242;DHT22;9755;47.790;9.620;2023-01-25T10:55:06;1.90;1.00
19242;DHT22;9755;47.790;9.620;2023-01-25T10:57:35;1.80;99.90
19242;DHT22;9755;47.790;9.620;2023-01-25T11:00:05;1.80;1.00
19242;DHT22;9755;47.790;9.620;2023-01-25T11:02:42;1.90;1.00
19242;DHT22;9755;47.790;9.620;2023-01-25T11:05:28;2.00;1.00
19242;DHT22;9755;47.790;9.620;2023-01-25T11:07:55;2.00;1.00
19242;DHT22;9755;47.790;9.620;2023-01-25T11:10:31;2.00;1.00
19242;DHT22;9755;47.790;9.620;2023-01-25T11:13:26;2.10;1.00
19242;DHT22;9755;47.790;9.620;2023-01-25T11:16:13;2.10;1.00
19242;DHT22;9755;47.790;9.620;2023-01-25T11:18:49;2.10;1.00
19242;DHT22;9755;47.790;9.620;2023-01-25T11:21:17;2.00;1.00
19242;DHT22;9755;47.790;9.620;2023-01-25T11:23:59;2.00;1.00
19242;DHT22;9755;47.790;9.620;2023-01-25T11:26:27;2.00;1.00
19242;DHT22;9755;47.790;9.620;2023-01-25T11:29:10;2.00;99.90
19242;DHT22;9755;47.790;9.620;2023-01-25T11:31:38;2.10;99.90
19242;DHT22;9755;47.790;9.620;2023-01-25T11:34:09;2.00;99.90
19242;DHT22;9755;47.790;9.620;2023-01-25T11:36:55;2.10;99.90
19242;DHT22;9755;47.790;9.620;2023-01-25T11:39:37;2.10;99.90
19242;DHT22;9755;47.790;9.620;2023-01-25T11:42:22;2.20;99.90
19242;DHT22;9755;47.790;9.620;2023-01-25T11:45:18;2.20;52.20
19242;DHT22;9755;47.790;9.620;2023-01-25T11:48:08;2.20;1.00
19242;DHT22;9755;47.790;9.620;2023-01-25T11:50:44;2.10;99.90
19242;DHT22;9755;47.790;9.620;2023-01-25T11:53:30;2.20;99.90
19242;DHT22;9755;47.790;9.620;2023-01-25T11:56:05;2.10;1.00
19242;DHT22;9755;47.790;9.620;2023-01-25T12:01:35;1.80;99.90
19242;DHT22;9755;47.790;9.620;2023-01-25T12:04:33;1.80;1.00
19242;DHT22;9755;47.790;9.620;2023-01-25T12:07:06;1.80;99.90
19242;DHT22;9755;47.790;9.620;2023-01-25T12:09:49;1.80;99.90
19242;DHT22;9755;47.790;9.620;2023-01-25T12:12:32;1.80;99.90
19242;DHT22;9755;47.790;9.620;2023-01-25T12:15:23;1.80;1.00
19242;DHT22;9755;47.790;9.620;2023-01-25T12:21:02;1.80;99.90
19242;DHT22;9755;47.790;9.620;2023-01-25T12:23:48;1.90;1.00
19242;DHT22;9755;47.790;9.620;2023-01-25T12:26:22;1.90;1.00
19242;DHT22;9755;47.790;9.620;2023-01-25T12:28:58;2.00;1.00
19242;DHT22;9755;47.790;9.620;2023-01-25T12:31:35;1.90;1.00
19242;DHT22;9755;47.790;9.620;2023-01-25T12:34:09;1.90;1.00
19242;DHT22;9755;47.790;9.620;2023-01-25T12:36:41;1.80;1.00
19242;DHT22;9755;47.790;9.620;2023-01-25T12:39:12;1.70;1.00
19242;DHT22;9755;47.790;9.620;2023-01-25T12:41:43;1.70;99.90
19242;DHT22;9755;47.790;9.620;2023-01-25T12:44:18;1.80;99.90
19242;DHT22;9755;47.790;9.620;2023-01-25T12:46:53;1.70;1.00
19242;DHT22;9755;47.790;9.620;2023-01-25T12:49:28;1.80;99.90
19242;DHT22;9755;47.790;9.620;2023-01-25T12:52:00;1.80;99.90
19242;DHT22;9755;47.790;9.620;2023-01-25T12:54:33;1.80;42.30
19242;DHT22;9755;47.790;9.620;2023-01-25T12:57:09;1.80;1.00
19242;DHT22;9755;47.790;9.620;2023-01-25T12:59:45;1.80;1.00
19242;DHT22;9755;47.790;9.620;2023-01-25T13:02:29;1.70;99.90
19242;DHT22;9755;47.790;9.620;2023-01-25T13:05:02;1.80;99.90
19242;DHT22;9755;47.790;9.620;2023-01-25T13:07:42;1.70;1.00
19242;DHT22;9755;47.790;9.620;2023-01-25T13:10:16;1.70;1.00
19242;DHT22;9755;47.790;9.620;2023-01-25T13:12:51;1.60;99.90
19242;DHT22;9755;47.790;9.620;2023-01-25T13:15:34;1.60;99.90
19242;DHT22;9755;47.790;9.620;2023-01-25T13:18:34;1.70;99.90
19242;DHT22;9755;47.790;9.620;2023-01-25T13:21:06;1.70;99.90
19242;DHT22;9755;47.790;9.620;2023-01-25T13:23:37;1.70;99.90
19242;DHT22;9755;47.790;9.620;2023-01-25T13:26:44;1.80;1.00
19242;DHT22;9755;47.790;9.620;2023-01-25T13:35:39;1.80;1.00
19242;DHT22;9755;47.790;9.620;2023-01-25T13:38:30;1.80;1.00
19242;DHT22;9755;47.790;9.620;2023-01-25T13:41:12;1.80;99.90
19242;DHT22;9755;47.790;9.620;2023-01-25T13:43:43;1.80;99.90
19242;DHT22;9755;47.790;9.620;2023-01-25T13:46:14;1.90;21.80
19242;DHT22;9755;47.790;9.620;2023-01-25T13:49:02;1.80;1.00
19242;DHT22;9755;47.790;9.620;2023-01-25T13:51:33;1.90;1.00
19242;DHT22;9755;47.790;9.620;2023-01-25T13:54:15;1.80;1.00
19242;DHT22;9755;47.790;9.620;2023-01-25T13:56:42;1.80;1.00
19242;DHT22;9755;47.790;9.620;2023-01-25T13:59:23;1.80;56.10
19242;DHT22;9755;47.790;9.620;2023-01-25T14:01:50;1.80;1.00
19242;DHT22;9755;47.790;9.620;2023-01-25T14:04:17;1.80;1.00
19242;DHT22;9755;47.790;9.620;2023-01-25T14:06:44;1.80;1.00
19242;DHT22;9755;47.790;9.620;2023-01-25T14:09:15;1.80;1.00
19242;DHT22;9755;47.790;9.620;2023-01-25T14:11:49;1.80;1.00
19242;DHT22;9755;47.790;9.620;2023-01-25T14:14:19;1.90;1.00
19242;DHT22;9755;47.790;9.620;2023-01-25T14:17:04;1.80;1.00
19242;DHT22;9755;47.790;9.620;2023-01-25T14:19:39;1.80;1.00
19242;DHT22;9755;47.790;9.620;2023-01-25T14:22:27;1.80;1.00
19242;DHT22;9755;47.790;9.620;2023-01-25T14:25:10;1.90;1.00
19242;DHT22;9755;47.790;9.620;2023-01-25T14:27:42;1.90;1.00
19242;DHT22;9755;47.790;9.620;2023-01-25T14:30:16;1.90;1.00
19242;DHT22;9755;47.790;9.620;2023-01-25T14:32:44;1.80;1.00
19242;DHT22;9755;47.790;9.620;2023-01-25T14:35:39;1.90;1.00
19242;DHT22;9755;47.790;9.620;2023-01-25T14:38:22;1.80;1.00
19242;DHT22;9755;47.790;9.620;2023-01-25T14:40:53;1.80;1.00
19242;DHT22;9755;47.790;9.620;2023-01-25T14:43:21;1.80;1.00
19242;DHT22;9755;47.790;9.620;2023-01-25T14:45:49;1.80;1.00
19242;DHT22;9755;47.790;9.620;2023-01-25T14:48:35;1.70;1.00
19242;DHT22;9755;47.790;9.620;2023-01-25T14:51:08;1.70;1.00
19242;DHT22;9755;47.790;9.620;2023-01-25T14:53:38;1.60;99.90
19242;DHT22;9755;47.790;9.620;2023-01-25T14:56:20;1.60;99.90
19242;DHT22;9755;47.790;9.620;2023-01-25T14:58:49;1.60;99.90
19242;DHT22;9755;47.790;9.620;2023-01-25T15:01:24;1.50;99.90
19242;DHT22;9755;47.790;9.620;2023-01-25T15:03:52;1.60;1.00
19242;DHT22;9755;47.790;9.620;2023-01-25T15:06:22;1.50;1.00
19242;DHT22;9755;47.790;9.620;2023-01-25T15:08:49;1.60;1.00
19242;DHT22;9755;47.790;9.620;2023-01-25T15:11:30;1.60;1.00
19242;DHT22;9755;47.790;9.620;2023-01-25T15:14:17;1.60;60.80
19242;DHT22;9755;47.790;9.620;2023-01-25T15:16:45;1.60;1.00
19242;DHT22;9755;47.790;9.620;2023-01-25T15:19:24;1.50;1.00
19242;DHT22;9755;47.790;9.620;2023-01-25T15:21:53;1.50;99.90
19242;DHT22;9755;47.790;9.620;2023-01-25T15:24:20;1.50;1.00
19242;DHT22;9755;47.790;9.620;2023-01-25T15:26:51;1.50;1.00
19242;DHT22;9755;47.790;9.620;2023-01-25T15:29:20;1.50;1.00
19242;DHT22;9755;47.790;9.620;2023-01-25T15:31:49;1.40;1.00
19242;DHT22;9755;47.790;9.620;2023-01-25T15:34:18;1.40;1.00
19242;DHT22;9755;47.790;9.620;2023-01-25T15:36:45;1.40;1.00
19242;DHT22;9755;47.790;9.620;2023-01-25T15:39:14;1.30;1.00
19242;DHT22;9755;47.790;9.620;2023-01-25T15:41:42;1.30;1.00
19242;DHT22;9755;47.790;9.620;2023-01-25T15:44:11;1.40;1.00
19242;DHT22;9755;47.790;9.620;2023-01-25T15:46:39;1.30;1.00
19242;DHT22;9755;47.790;9.620;2023-01-25T15:49:12;1.40;1.00
19242;DHT22;9755;47.790;9.620;2023-01-25T15:51:42;1.30;1.00
19242;DHT22;9755;47.790;9.620;2023-01-25T15:54:09;1.30;1.00
19242;DHT22;9755;47.790;9.620;2023-01-25T15:56:36;1.30;1.00
19242;DHT22;9755;47.790;9.620;2023-01-25T15:59:07;1.40;1.00
19242;DHT22;9755;47.790;9.620;2023-01-25T16:01:36;1.30;1.00
19242;DHT22;9755;47.790;9.620;2023-01-25T16:04:03;1.30;1.00
19242;DHT22;9755;47.790;9.620;2023-01-25T16:06:37;1.30;1.00
19242;DHT22;9755;47.790;9.620;2023-01-25T16:09:17;1.20;99.90
19242;DHT22;9755;47.790;9.620;2023-01-25T16:11:46;1.20;99.90
19242;DHT22;9755;47.790;9.620;2023-01-25T16:14:15;1.20;99.90
19242;DHT22;9755;47.790;9.620;2023-01-25T16:16:45;1.20;99.90
19242;DHT22;9755;47.790;9.620;2023-01-25T16:19:14;1.20;99.90
19242;DHT22;9755;47.790;9.620;2023-01-25T16:21:42;1.20;99.90
19242;DHT22;9755;47.790;9.620;2023-01-25T16:24:10;1.20;99.90
19242;DHT22;9755;47.790;9.620;2023-01-25T16:26:39;1.20;99.90
19242;DHT22;9755;47.790;9.620;2023-01-25T16:29:09;1.20;1.00
19242;DHT22;9755;47.790;9.620;2023-01-25T16:31:36;1.20;1.00
19242;DHT22;9755;47.790;9.620;2023-01-25T16:34:05;1.20;1.00
19242;DHT22;9755;47.790;9.620;2023-01-25T16:36:33;1.20;51.30
19242;DHT22;9755;47.790;9.620;2023-01-25T16:39:06;1.20;1.00
19242;DHT22;9755;47.790;9.620;2023-01-25T16:41:34;1.10;1.00
19242;DHT22;9755;47.790;9.620;2023-01-25T16:44:02;1.10;99.90
19242;DHT22;9755;47.790;9.620;2023-01-25T16:46:29;1.10;1.00
19242;DHT22;9755;47.790;9.620;2023-01-25T16:48:57;1.10;1.00
19242;DHT22;9755;47.790;9.620;2023-01-25T16:51:29;1.00;99.90
19242;DHT22;9755;47.790;9.620;2023-01-25T16:53:57;1.00;36.50
19242;DHT22;9755;47.790;9.620;2023-01-25T16:56:26;1.00;99.90
19242;DHT22;9755;47.790;9.620;2023-01-25T16:58:55;0.90;1.00